Crews, Texas
Current Conditions -  °F | °C
As of 7:43 AM on Sunday 21 Dec 2014 (Local Time) from KDYS Reporting Station
Broken Clouds Broken Clouds  
Wind Chill: 41°   Ceiling: 1400
Heat Index: 46°   Visibility: 10mi
Dew Point: 41°   Wind: 10mph
Humidity: 81%   Direction: 180°S
Pressure: 29.99"   Gusts: NA
Location:  31.975°N, 99.9034°W
Report Text: KDYS 211343Z AUTO 18009KT 10SM BKN014 08/05 A2999 RMK AO2 BKN V SCT $
Loading
Personal Weather Stations






























Interactive Weather Map New forecast layout! Learn more

10-Day Weather Forecast

Advertisements
Track Severe Weather on mobile